createdAt,value
2023-02-19T00:00:59.078Z,10.01
2023-02-19T00:02:00.963Z,10.00
2023-02-19T00:03:04.034Z,9.93
2023-02-19T00:04:07.698Z,9.86
2023-02-19T00:05:09.635Z,9.71
2023-02-19T00:06:11.726Z,9.62
2023-02-19T00:07:13.567Z,9.63
2023-02-19T00:08:15.482Z,9.61
2023-02-19T00:09:18.464Z,9.62
2023-02-19T00:10:20.309Z,9.53
2023-02-19T00:11:23.123Z,9.45
2023-02-19T00:12:25.045Z,9.41
2023-02-19T00:13:26.871Z,9.32
2023-02-19T00:14:28.807Z,9.27
2023-02-19T00:15:32.741Z,9.30
2023-02-19T00:16:36.135Z,9.36
2023-02-19T00:17:37.947Z,9.41
2023-02-19T00:18:40.322Z,9.47
2023-02-19T00:19:42.199Z,9.53
2023-02-19T00:20:44.095Z,9.55
2023-02-19T00:21:46.196Z,9.55
2023-02-19T00:22:48.100Z,9.54
2023-02-19T00:23:51.065Z,9.54
2023-02-19T00:24:52.991Z,9.54
2023-02-19T00:25:55.420Z,9.58
2023-02-19T00:26:57.277Z,9.54
2023-02-19T00:27:59.124Z,9.49
2023-02-19T00:29:01.657Z,9.30
2023-02-19T00:30:03.538Z,9.25
2023-02-19T00:31:09.840Z,9.24
2023-02-19T00:32:12.031Z,9.21
2023-02-19T00:33:14.050Z,9.16
2023-02-19T00:34:16.631Z,9.18
2023-02-19T00:35:18.473Z,9.20
2023-02-19T00:36:21.105Z,9.24
2023-02-19T00:37:23.047Z,9.29
2023-02-19T00:38:24.874Z,9.36
2023-02-19T00:39:26.765Z,9.44
2023-02-19T00:40:28.678Z,9.51
2023-02-19T00:41:30.953Z,9.56
2023-02-19T00:42:32.747Z,9.53
2023-02-19T00:43:34.544Z,9.46
2023-02-19T00:44:36.477Z,9.48
2023-02-19T00:45:38.595Z,9.50
2023-02-19T00:46:41.835Z,9.54
2023-02-19T00:47:43.770Z,9.55
2023-02-19T00:48:45.931Z,9.56
2023-02-19T00:49:47.823Z,9.52
2023-02-19T00:50:49.698Z,9.50
2023-02-19T00:51:52.675Z,9.47
2023-02-19T00:52:54.537Z,9.47
2023-02-19T00:53:56.431Z,9.45
2023-02-19T00:54:58.254Z,9.44
2023-02-19T00:56:00.088Z,9.38
2023-02-19T00:57:01.981Z,9.25
2023-02-19T00:58:03.872Z,9.21
2023-02-19T00:59:05.748Z,9.26
2023-02-19T01:00:07.962Z,9.33
2023-02-19T01:01:11.250Z,9.36
2023-02-19T01:02:13.343Z,9.36
2023-02-19T01:03:15.219Z,9.29
2023-02-19T01:04:17.033Z,9.25
2023-02-19T01:05:19.060Z,9.29
2023-02-19T01:06:21.405Z,9.35
2023-02-19T01:07:23.335Z,9.34
2023-02-19T01:08:25.184Z,9.36
2023-02-19T01:09:27.022Z,9.41
2023-02-19T01:10:28.900Z,9.40
2023-02-19T01:11:30.803Z,9.36
2023-02-19T01:12:33.305Z,9.32
2023-02-19T01:13:35.196Z,9.23
2023-02-19T01:14:37.060Z,9.23
2023-02-19T01:15:39.317Z,9.18
2023-02-19T01:16:41.156Z,9.19
2023-02-19T01:17:42.994Z,9.20
2023-02-19T01:18:45.717Z,9.18
2023-02-19T01:19:47.638Z,9.18
2023-02-19T01:20:49.520Z,9.21
2023-02-19T01:21:51.316Z,9.20
2023-02-19T01:22:53.296Z,9.23
2023-02-19T01:23:55.722Z,9.22
2023-02-19T01:24:57.612Z,9.16
2023-02-19T01:25:59.454Z,9.20
2023-02-19T01:27:01.272Z,9.19
2023-02-19T01:28:03.133Z,9.23
2023-02-19T01:29:05.328Z,9.27
2023-02-19T01:30:07.455Z,9.28
2023-02-19T01:31:12.941Z,9.30
2023-02-19T01:32:15.051Z,9.32
2023-02-19T01:33:16.844Z,9.28
2023-02-19T01:34:18.713Z,9.31
2023-02-19T01:35:20.630Z,9.34
2023-02-19T01:36:22.880Z,9.29
2023-02-19T01:37:24.821Z,9.18
2023-02-19T01:38:26.658Z,9.11
2023-02-19T01:39:28.533Z,9.10
2023-02-19T01:40:30.425Z,9.08
2023-02-19T01:41:34.438Z,9.12
2023-02-19T01:42:36.283Z,9.14
2023-02-19T01:43:57.701Z,9.17
2023-02-19T01:45:19.831Z,9.10
2023-02-19T01:46:21.917Z,9.00
2023-02-19T01:47:23.893Z,9.01
2023-02-19T01:48:27.987Z,8.99
2023-02-19T01:49:32.074Z,8.98
2023-02-19T01:50:37.456Z,9.00
2023-02-19T01:51:42.020Z,8.97
2023-02-19T01:52:43.885Z,9.01
2023-02-19T01:53:48.074Z,9.05
2023-02-19T01:54:50.627Z,9.02
2023-02-19T01:55:55.309Z,9.06
2023-02-19T01:56:57.774Z,9.09
2023-02-19T01:58:00.441Z,9.14
2023-02-19T01:59:02.550Z,9.16
2023-02-19T02:00:10.450Z,9.08
2023-02-19T02:01:13.065Z,9.08
2023-02-19T02:02:15.471Z,9.09
2023-02-19T02:03:18.008Z,9.09
2023-02-19T02:04:19.844Z,9.05
2023-02-19T02:05:30.044Z,8.97
2023-02-19T02:06:34.752Z,8.92
2023-02-19T02:07:55.008Z,8.90
2023-02-19T02:09:16.822Z,8.89
2023-02-19T02:10:21.317Z,8.89
2023-02-19T02:11:23.293Z,8.93
2023-02-19T02:12:25.111Z,8.94
2023-02-19T02:13:27.156Z,8.95
2023-02-19T02:14:31.254Z,8.99
2023-02-19T02:15:39.781Z,8.95
2023-02-19T02:16:53.785Z,8.91
2023-02-19T02:18:17.411Z,8.87
2023-02-19T02:19:25.276Z,8.83
2023-02-19T02:20:50.115Z,8.89
2023-02-19T02:21:57.900Z,8.96
2023-02-19T02:22:59.686Z,9.00
2023-02-19T02:24:16.518Z,9.01
2023-02-19T02:25:41.747Z,9.00
2023-02-19T02:26:43.565Z,9.04
2023-02-19T02:27:51.406Z,9.06
2023-02-19T02:28:56.291Z,9.07
2023-02-19T02:29:58.160Z,9.09
2023-02-19T02:31:03.111Z,9.05
2023-02-19T02:32:10.675Z,9.06
2023-02-19T02:33:27.559Z,9.09
2023-02-19T02:34:41.540Z,9.05
2023-02-19T02:35:50.003Z,9.09
2023-02-19T02:36:55.399Z,9.07
2023-02-19T02:38:01.305Z,9.06
2023-02-19T02:39:05.415Z,9.01
2023-02-19T02:40:08.525Z,9.00
2023-02-19T02:41:11.643Z,8.99
2023-02-19T02:42:28.596Z,9.00
2023-02-19T02:43:30.450Z,8.97
2023-02-19T02:44:36.392Z,8.82
2023-02-19T02:45:38.749Z,8.84
2023-02-19T02:46:45.392Z,8.82
2023-02-19T02:47:54.960Z,8.81
2023-02-19T02:49:02.384Z,8.78
2023-02-19T02:50:07.326Z,8.81
2023-02-19T02:51:09.409Z,8.84
2023-02-19T02:52:31.287Z,8.85
2023-02-19T02:53:55.813Z,8.83
2023-02-19T02:55:03.634Z,8.81
2023-02-19T02:56:05.667Z,8.80
2023-02-19T02:57:09.849Z,8.84
2023-02-19T02:58:13.413Z,8.87
2023-02-19T02:59:18.193Z,8.85
2023-02-19T03:00:20.176Z,8.85
2023-02-19T03:01:48.364Z,8.81
2023-02-19T03:02:50.383Z,8.79
2023-02-19T03:03:55.156Z,8.81
2023-02-19T03:05:21.312Z,8.72
2023-02-19T03:06:25.709Z,8.66
2023-02-19T03:07:30.178Z,8.68
2023-02-19T03:08:36.260Z,8.73
2023-02-19T03:09:41.634Z,8.78
2023-02-19T03:10:56.805Z,8.78
2023-02-19T03:12:20.633Z,8.80
2023-02-19T03:13:54.029Z,8.82
2023-02-19T03:15:18.406Z,8.86
2023-02-19T03:16:43.022Z,8.77
2023-02-19T03:18:11.957Z,8.73
2023-02-19T03:19:21.969Z,8.78
2023-02-19T03:20:24.634Z,8.79
2023-02-19T03:21:27.829Z,8.77
2023-02-19T03:22:31.766Z,8.79
2023-02-19T03:23:52.547Z,8.85
2023-02-19T03:25:39.020Z,8.91
2023-02-19T03:26:41.673Z,8.90
2023-02-19T03:27:44.569Z,8.82
2023-02-19T03:29:06.499Z,8.77
2023-02-19T03:30:11.150Z,8.79
2023-02-19T03:31:15.850Z,8.79
2023-02-19T03:32:22.625Z,8.78
2023-02-19T03:33:27.514Z,8.77
2023-02-19T03:34:32.969Z,8.76
2023-02-19T03:35:43.626Z,8.71
2023-02-19T03:36:48.596Z,8.61
2023-02-19T03:37:58.954Z,8.54
2023-02-19T03:39:03.153Z,8.50
2023-02-19T03:40:05.109Z,8.53
2023-02-19T03:41:24.346Z,8.58
2023-02-19T03:42:46.500Z,8.65
2023-02-19T03:43:56.079Z,8.71
2023-02-19T03:45:16.649Z,8.75
2023-02-19T03:46:23.882Z,8.77
2023-02-19T03:47:27.894Z,8.80
2023-02-19T03:48:36.982Z,8.77
2023-02-19T03:49:49.214Z,8.72
2023-02-19T03:51:18.288Z,8.71
2023-02-19T03:52:29.541Z,8.70
2023-02-19T03:53:43.685Z,8.72
2023-02-19T03:54:53.290Z,8.76
2023-02-19T03:56:10.906Z,8.82
2023-02-19T03:57:31.690Z,8.81
2023-02-19T03:58:41.977Z,8.80
2023-02-19T03:59:49.249Z,8.80
2023-02-19T04:01:14.267Z,8.82
2023-02-19T04:02:19.871Z,8.87
2023-02-19T04:03:27.529Z,8.92
2023-02-19T04:04:38.766Z,8.92
2023-02-19T04:05:45.357Z,8.84
2023-02-19T04:06:48.895Z,8.76
2023-02-19T04:07:53.619Z,8.72
2023-02-19T04:08:57.794Z,8.73
2023-02-19T04:09:59.822Z,8.71
2023-02-19T04:11:02.024Z,8.73
2023-02-19T04:12:04.563Z,8.73
2023-02-19T04:13:09.604Z,8.76
2023-02-19T04:14:15.477Z,8.78
2023-02-19T04:15:21.424Z,8.72
2023-02-19T04:16:24.799Z,8.66
2023-02-19T04:17:32.705Z,8.63
2023-02-19T04:18:37.268Z,8.61
2023-02-19T04:19:40.399Z,8.65
2023-02-19T04:20:46.942Z,8.68
2023-02-19T04:21:51.077Z,8.75
2023-02-19T04:22:53.386Z,8.76
2023-02-19T04:23:56.511Z,8.77
2023-02-19T04:24:58.459Z,8.73
2023-02-19T04:26:01.722Z,8.73
2023-02-19T04:27:04.830Z,8.75
2023-02-19T04:28:07.692Z,8.78
2023-02-19T04:29:09.663Z,8.80
2023-02-19T04:30:13.131Z,8.82
2023-02-19T04:31:15.154Z,8.77
2023-02-19T04:32:17.168Z,8.78
2023-02-19T04:33:19.077Z,8.81
2023-02-19T04:34:20.888Z,8.82
2023-02-19T04:35:22.814Z,8.83
2023-02-19T04:36:24.667Z,8.81
2023-02-19T04:37:26.673Z,8.77
2023-02-19T04:38:28.606Z,8.75
2023-02-19T04:39:30.394Z,8.66
2023-02-19T04:40:32.276Z,8.57
2023-02-19T04:41:34.582Z,8.55
2023-02-19T04:42:36.436Z,8.55
2023-02-19T04:43:38.375Z,8.55
2023-02-19T04:44:40.253Z,8.47
2023-02-19T04:45:42.123Z,8.37
2023-02-19T04:46:44.098Z,8.28
2023-02-19T04:47:46.125Z,8.26
2023-02-19T04:48:47.970Z,8.29
2023-02-19T04:49:49.884Z,8.28
2023-02-19T04:50:51.729Z,8.29
2023-02-19T04:51:53.539Z,8.32
2023-02-19T04:52:55.553Z,8.36
2023-02-19T04:53:57.451Z,8.42
2023-02-19T04:54:59.383Z,8.44
2023-02-19T04:56:08.610Z,8.41
2023-02-19T04:57:10.540Z,8.34
2023-02-19T04:58:12.389Z,8.37
2023-02-19T04:59:14.260Z,8.44
2023-02-19T05:00:16.103Z,8.48
2023-02-19T05:01:18.077Z,8.44
2023-02-19T05:02:20.058Z,8.47
2023-02-19T05:03:21.991Z,8.48
2023-02-19T05:04:24.412Z,8.48
2023-02-19T05:05:26.328Z,8.50
2023-02-19T05:06:28.173Z,8.51
2023-02-19T05:07:30.156Z,8.54
2023-02-19T05:08:32.036Z,8.52
2023-02-19T05:09:33.904Z,8.47
2023-02-19T05:10:35.703Z,8.46
2023-02-19T05:11:37.633Z,8.44
2023-02-19T05:12:39.519Z,8.42
2023-02-19T05:13:41.532Z,8.45
2023-02-19T05:14:43.511Z,8.44
2023-02-19T05:15:54.590Z,8.39
2023-02-19T05:16:56.454Z,8.39
2023-02-19T05:17:58.290Z,8.38
2023-02-19T05:19:00.252Z,8.38
2023-02-19T05:20:02.177Z,8.44
2023-02-19T05:21:04.148Z,8.40
2023-02-19T05:22:05.994Z,8.35
2023-02-19T05:23:07.822Z,8.26
2023-02-19T05:24:10.229Z,8.25
2023-02-19T05:25:12.024Z,8.28
2023-02-19T05:26:20.265Z,8.32
2023-02-19T05:27:22.207Z,8.39
2023-02-19T05:28:29.174Z,8.43
2023-02-19T05:29:31.985Z,8.44
2023-02-19T05:30:33.972Z,8.44
2023-02-19T05:31:36.232Z,8.47
2023-02-19T05:32:38.403Z,8.49
2023-02-19T05:33:41.752Z,8.54
2023-02-19T05:34:43.506Z,8.54
2023-02-19T05:35:46.741Z,8.56
2023-02-19T05:36:48.606Z,8.53
2023-02-19T05:37:50.453Z,8.52
2023-02-19T05:38:53.326Z,8.54
2023-02-19T05:39:55.197Z,8.52
2023-02-19T05:40:56.986Z,8.48
2023-02-19T05:41:58.893Z,8.49
2023-02-19T05:43:00.725Z,8.49
2023-02-19T05:44:02.588Z,8.48
2023-02-19T05:45:04.633Z,8.46
2023-02-19T05:46:07.173Z,8.44
2023-02-19T05:47:09.109Z,8.35
2023-02-19T05:48:11.447Z,8.26
2023-02-19T05:49:13.448Z,8.26
2023-02-19T05:50:15.317Z,8.29
2023-02-19T05:51:18.731Z,8.33
2023-02-19T05:52:20.710Z,8.33
2023-02-19T05:53:22.599Z,8.33
2023-02-19T05:54:24.450Z,8.32
2023-02-19T05:55:26.242Z,8.33
2023-02-19T05:56:35.897Z,8.33
2023-02-19T05:57:43.612Z,8.37
2023-02-19T05:58:45.680Z,8.42
2023-02-19T05:59:47.564Z,8.44
2023-02-19T06:00:49.466Z,8.43
2023-02-19T06:01:52.801Z,8.45
2023-02-19T06:02:54.980Z,8.48
2023-02-19T06:03:57.888Z,8.49
2023-02-19T06:04:59.964Z,8.48
2023-02-19T06:06:03.742Z,8.45
2023-02-19T06:07:05.633Z,8.40
2023-02-19T06:08:07.562Z,8.37
2023-02-19T06:09:09.625Z,8.36
2023-02-19T06:10:12.473Z,8.39
2023-02-19T06:11:14.304Z,8.41
2023-02-19T06:12:16.125Z,8.42
2023-02-19T06:13:17.973Z,8.44
2023-02-19T06:14:19.880Z,8.45
2023-02-19T06:15:22.135Z,8.47
2023-02-19T06:16:24.202Z,8.48
2023-02-19T06:17:26.423Z,8.51
2023-02-19T06:18:28.235Z,8.54
2023-02-19T06:19:30.112Z,8.55
2023-02-19T06:20:33.274Z,8.57
2023-02-19T06:21:35.548Z,8.56
2023-02-19T06:22:37.458Z,8.57
2023-02-19T06:23:39.766Z,8.53
2023-02-19T06:24:41.674Z,8.51
2023-02-19T06:25:43.572Z,8.47
2023-02-19T06:26:45.481Z,8.38
2023-02-19T06:27:47.599Z,8.37
2023-02-19T06:28:50.210Z,8.42
2023-02-19T06:29:52.191Z,8.42
2023-02-19T06:30:53.996Z,8.45
2023-02-19T06:31:55.958Z,8.48
2023-02-19T06:32:57.966Z,8.51
2023-02-19T06:33:59.842Z,8.55
2023-02-19T06:35:01.728Z,8.57
2023-02-19T06:36:04.383Z,8.58
2023-02-19T06:37:06.177Z,8.58
2023-02-19T06:38:08.044Z,8.57
2023-02-19T06:39:10.160Z,8.50
2023-02-19T06:40:12.093Z,8.47
2023-02-19T06:41:14.222Z,8.41
2023-02-19T06:42:16.313Z,8.35
2023-02-19T06:43:18.271Z,8.34
2023-02-19T06:44:20.776Z,8.35
2023-02-19T06:45:22.702Z,8.29
2023-02-19T06:46:24.765Z,8.28
2023-02-19T06:47:26.653Z,8.30
2023-02-19T06:48:29.119Z,8.33
2023-02-19T06:49:30.944Z,8.35
2023-02-19T06:50:32.905Z,8.35
2023-02-19T06:51:34.903Z,8.38
2023-02-19T06:52:36.804Z,8.41
2023-02-19T06:53:38.690Z,8.47
2023-02-19T06:54:40.607Z,8.50
2023-02-19T06:55:42.555Z,8.48
2023-02-19T06:56:46.933Z,8.40
2023-02-19T06:57:48.986Z,8.38
2023-02-19T06:58:51.116Z,8.44
2023-02-19T06:59:53.097Z,8.48
2023-02-19T07:00:55.637Z,8.48
2023-02-19T07:01:57.489Z,8.41
2023-02-19T07:02:59.362Z,8.43
2023-02-19T07:04:01.419Z,8.47
2023-02-19T07:05:03.273Z,8.51
2023-02-19T07:06:05.318Z,8.53
2023-02-19T07:07:07.255Z,8.50
2023-02-19T07:08:09.089Z,8.47
2023-02-19T07:09:11.438Z,8.44
2023-02-19T07:10:13.263Z,8.44
2023-02-19T07:11:15.280Z,8.43
2023-02-19T07:12:17.075Z,8.46
2023-02-19T07:13:18.929Z,8.50
2023-02-19T07:14:21.804Z,8.51
2023-02-19T07:15:23.703Z,8.51
2023-02-19T07:16:25.809Z,8.53
2023-02-19T07:17:27.663Z,8.54
2023-02-19T07:18:30.913Z,8.55
2023-02-19T07:19:32.889Z,8.58
2023-02-19T07:20:34.777Z,8.55
2023-02-19T07:21:38.097Z,8.56
2023-02-19T07:22:39.915Z,8.61
2023-02-19T07:23:42.596Z,8.64
2023-02-19T07:24:46.859Z,8.66
2023-02-19T07:25:49.661Z,8.64
2023-02-19T07:26:51.537Z,8.64
2023-02-19T07:27:53.424Z,8.63
2023-02-19T07:28:55.330Z,8.66
2023-02-19T07:29:57.279Z,8.67
2023-02-19T07:31:02.902Z,8.69
2023-02-19T07:32:05.058Z,8.73
2023-02-19T07:33:09.411Z,8.74
2023-02-19T07:34:12.411Z,8.73
2023-02-19T07:35:14.329Z,8.68
2023-02-19T07:36:17.361Z,8.68
2023-02-19T07:37:19.229Z,8.70
2023-02-19T07:38:21.988Z,8.73
2023-02-19T07:39:23.912Z,8.75
2023-02-19T07:40:25.740Z,8.73
2023-02-19T07:41:28.084Z,8.73
2023-02-19T07:42:30.070Z,8.71
2023-02-19T07:43:33.620Z,8.70
2023-02-19T07:44:35.511Z,8.70
2023-02-19T07:45:37.414Z,8.74
2023-02-19T07:46:39.613Z,8.73
2023-02-19T07:47:41.504Z,8.72
2023-02-19T07:48:44.585Z,8.70
2023-02-19T07:49:46.448Z,8.70
2023-02-19T07:51:08.666Z,8.73
2023-02-19T07:52:10.679Z,8.74
2023-02-19T07:53:12.548Z,8.76
2023-02-19T07:54:14.482Z,8.81
2023-02-19T07:55:16.392Z,8.86
2023-02-19T07:56:18.956Z,8.86
2023-02-19T07:57:20.842Z,8.90
2023-02-19T07:58:22.711Z,8.93
2023-02-19T07:59:24.599Z,8.92
2023-02-19T08:00:26.936Z,8.89
2023-02-19T08:01:47.132Z,8.88
2023-02-19T08:03:00.891Z,8.85
2023-02-19T08:04:02.679Z,8.86
2023-02-19T08:05:05.211Z,8.80
2023-02-19T08:06:07.323Z,8.79
2023-02-19T08:07:09.275Z,8.79
2023-02-19T08:08:14.969Z,8.77
2023-02-19T08:09:16.806Z,8.76
2023-02-19T08:10:37.001Z,8.75
2023-02-19T08:11:57.184Z,8.77
2023-02-19T08:13:28.869Z,8.78
2023-02-19T08:14:30.744Z,8.75
2023-02-19T08:15:33.181Z,8.72
2023-02-19T08:16:42.865Z,8.70
2023-02-19T08:17:45.104Z,8.71
2023-02-19T08:18:48.222Z,8.74
2023-02-19T08:19:50.056Z,8.75
2023-02-19T08:20:52.026Z,8.70
2023-02-19T08:21:53.886Z,8.57
2023-02-19T08:22:55.828Z,8.54
2023-02-19T08:23:57.741Z,8.56
2023-02-19T08:24:59.628Z,8.58
2023-02-19T08:26:02.616Z,8.65
2023-02-19T08:27:04.587Z,8.73
2023-02-19T08:28:06.960Z,8.78
2023-02-19T08:29:08.827Z,8.79
2023-02-19T08:30:11.031Z,8.79
2023-02-19T08:31:13.406Z,8.82
2023-02-19T08:32:15.823Z,8.84
2023-02-19T08:33:19.445Z,8.85
2023-02-19T08:34:21.358Z,8.89
2023-02-19T08:35:23.232Z,8.88
2023-02-19T08:36:25.169Z,8.86
2023-02-19T08:37:27.100Z,8.87
2023-02-19T08:38:29.009Z,8.82
2023-02-19T08:39:30.903Z,8.81
2023-02-19T08:40:33.450Z,8.84
2023-02-19T08:41:35.255Z,8.82
2023-02-19T08:42:37.322Z,8.77
2023-02-19T08:43:39.713Z,8.69
2023-02-19T08:44:44.125Z,8.69
2023-02-19T08:45:47.919Z,8.73
2023-02-19T08:46:49.791Z,8.75
2023-02-19T08:47:51.750Z,8.71
2023-02-19T08:48:53.674Z,8.61
2023-02-19T08:49:55.572Z,8.55
2023-02-19T08:50:58.709Z,8.55
2023-02-19T08:52:00.703Z,8.58
2023-02-19T08:53:03.165Z,8.61
2023-02-19T08:54:05.106Z,8.65
2023-02-19T08:55:07.164Z,8.65
2023-02-19T08:56:13.927Z,8.61
2023-02-19T08:57:15.854Z,8.63
2023-02-19T08:58:17.789Z,8.69
2023-02-19T08:59:20.947Z,8.71
2023-02-19T09:00:22.892Z,8.67
2023-02-19T09:01:24.898Z,8.67
2023-02-19T09:02:26.929Z,8.67
2023-02-19T09:03:28.821Z,8.73
2023-02-19T09:04:30.839Z,8.79
2023-02-19T09:05:32.830Z,8.82
2023-02-19T09:06:34.716Z,8.84
2023-02-19T09:07:36.619Z,8.84
2023-02-19T09:08:38.426Z,8.82
2023-02-19T09:09:40.873Z,8.82
2023-02-19T09:10:42.648Z,8.86
2023-02-19T09:11:44.483Z,8.86
2023-02-19T09:12:46.333Z,8.88
2023-02-19T09:13:48.394Z,8.91
2023-02-19T09:14:50.321Z,8.92
2023-02-19T09:15:52.124Z,8.92
2023-02-19T09:16:53.955Z,8.95
2023-02-19T09:17:55.805Z,8.97
2023-02-19T09:18:57.739Z,8.91
2023-02-19T09:19:59.567Z,8.89
2023-02-19T09:21:05.482Z,9.01
2023-02-19T09:22:07.320Z,9.16
2023-02-19T09:23:09.301Z,9.27
2023-02-19T09:24:11.181Z,9.31
2023-02-19T09:25:13.112Z,9.37
2023-02-19T09:26:15.031Z,9.48
2023-02-19T09:27:18.249Z,9.56
2023-02-19T09:28:21.321Z,9.60
2023-02-19T09:29:25.041Z,9.63
2023-02-19T09:30:27.021Z,9.65
2023-02-19T09:31:28.995Z,9.70
2023-02-19T09:32:31.653Z,9.73
2023-02-19T09:33:33.763Z,9.74
2023-02-19T09:34:35.590Z,9.77
2023-02-19T09:35:41.470Z,9.77
2023-02-19T09:36:43.510Z,9.85
2023-02-19T09:37:45.520Z,9.95
2023-02-19T09:38:47.417Z,10.03
2023-02-19T09:39:49.348Z,10.09
2023-02-19T09:40:51.201Z,10.12
2023-02-19T09:41:55.660Z,10.18
2023-02-19T09:42:58.660Z,10.23
2023-02-19T09:44:02.762Z,10.24
2023-02-19T09:45:05.484Z,10.24
2023-02-19T09:46:12.571Z,10.27
2023-02-19T09:47:24.419Z,10.29
2023-02-19T09:48:26.437Z,10.33
2023-02-19T09:49:36.944Z,10.35
2023-02-19T09:50:41.575Z,10.37
2023-02-19T09:51:46.958Z,10.38
2023-02-19T09:52:57.523Z,10.39
2023-02-19T09:54:00.087Z,10.39
2023-02-19T09:55:03.973Z,10.41
2023-02-19T09:56:06.649Z,10.50
2023-02-19T09:57:20.173Z,10.59
2023-02-19T09:58:26.326Z,10.62
2023-02-19T09:59:48.399Z,10.64
2023-02-19T10:00:51.682Z,10.69
2023-02-19T10:02:04.966Z,10.72
2023-02-19T10:03:11.766Z,10.79
2023-02-19T10:04:14.070Z,10.83
2023-02-19T10:05:16.905Z,10.87
2023-02-19T10:06:30.475Z,10.88
2023-02-19T10:07:38.853Z,10.93
2023-02-19T10:08:41.059Z,10.97
2023-02-19T10:09:45.606Z,11.01
2023-02-19T10:10:48.002Z,11.02
2023-02-19T10:11:50.709Z,11.06
2023-02-19T10:12:54.601Z,11.11
2023-02-19T10:14:05.542Z,11.13
2023-02-19T10:15:18.556Z,11.14
2023-02-19T10:16:27.994Z,11.15
2023-02-19T10:17:31.889Z,11.13
2023-02-19T10:18:41.964Z,11.10
2023-02-19T10:19:44.231Z,11.11
2023-02-19T10:20:46.879Z,11.10
2023-02-19T10:21:49.346Z,11.08
2023-02-19T10:22:57.310Z,10.88
2023-02-19T10:24:03.112Z,10.60
2023-02-19T10:25:05.075Z,10.35
2023-02-19T10:26:06.979Z,10.16
2023-02-19T10:27:15.153Z,10.00
2023-02-19T10:28:22.641Z,9.94
2023-02-19T10:29:25.263Z,9.77
2023-02-19T10:30:31.976Z,9.68
2023-02-19T10:31:34.232Z,9.64
2023-02-19T10:32:36.130Z,9.64
2023-02-19T10:33:48.540Z,9.65
2023-02-19T10:35:09.238Z,9.58
2023-02-19T10:36:22.580Z,9.56
2023-02-19T10:37:24.485Z,9.62
2023-02-19T10:38:31.962Z,9.66
2023-02-19T10:39:39.370Z,9.67
2023-02-19T10:40:44.657Z,9.59
2023-02-19T10:41:46.935Z,9.54
2023-02-19T10:42:50.561Z,9.54
2023-02-19T10:43:58.430Z,9.52
2023-02-19T10:45:03.510Z,9.47
2023-02-19T10:46:08.408Z,9.44
2023-02-19T10:47:19.263Z,9.43
2023-02-19T10:48:41.580Z,9.38
2023-02-19T10:49:46.257Z,9.33
2023-02-19T10:50:57.681Z,9.31
2023-02-19T10:52:18.086Z,9.27
2023-02-19T10:53:25.815Z,9.27
2023-02-19T10:54:36.596Z,9.24
2023-02-19T10:55:41.052Z,9.24
2023-02-19T10:56:43.042Z,9.18
2023-02-19T10:57:46.930Z,9.21
2023-02-19T10:58:48.823Z,9.24
2023-02-19T10:59:51.670Z,9.27
2023-02-19T11:01:10.315Z,9.30
2023-02-19T11:02:21.954Z,9.33
2023-02-19T11:03:24.327Z,9.40
2023-02-19T11:04:34.504Z,9.46
2023-02-19T11:05:38.755Z,9.50
2023-02-19T11:06:40.680Z,9.46
2023-02-19T11:07:45.681Z,9.43
2023-02-19T11:08:53.723Z,9.44
2023-02-19T11:09:56.381Z,9.39
2023-02-19T11:10:59.036Z,9.37
2023-02-19T11:12:01.858Z,9.38
2023-02-19T11:13:05.514Z,9.34
2023-02-19T11:14:18.784Z,9.36
2023-02-19T11:15:24.308Z,9.50
2023-02-19T11:16:38.093Z,9.64
2023-02-19T11:17:40.191Z,9.74
2023-02-19T11:18:43.359Z,9.81
2023-02-19T11:19:48.882Z,9.97
2023-02-19T11:20:57.748Z,9.99
2023-02-19T11:22:00.840Z,10.04
2023-02-19T11:23:14.073Z,10.04
2023-02-19T11:24:25.644Z,10.05
2023-02-19T11:25:28.109Z,10.04
2023-02-19T11:26:32.504Z,10.05
2023-02-19T11:27:34.625Z,10.04
2023-02-19T11:28:39.164Z,10.02
2023-02-19T11:29:41.115Z,10.03
2023-02-19T11:30:44.179Z,10.01
2023-02-19T11:31:46.956Z,9.99
2023-02-19T11:32:48.896Z,9.97
2023-02-19T11:33:55.488Z,9.96
2023-02-19T11:35:27.215Z,9.94
2023-02-19T11:36:36.209Z,9.98
2023-02-19T11:37:53.249Z,10.01
2023-02-19T11:38:59.028Z,10.03
2023-02-19T11:40:01.345Z,10.02
2023-02-19T11:41:23.597Z,10.01
2023-02-19T11:42:31.566Z,10.03
2023-02-19T11:43:36.923Z,10.05
2023-02-19T11:44:57.792Z,10.06
2023-02-19T11:46:01.259Z,10.07
2023-02-19T11:47:15.722Z,10.07
2023-02-19T11:48:35.700Z,10.00
2023-02-19T11:49:49.146Z,9.95
2023-02-19T11:51:14.405Z,9.88
2023-02-19T11:52:22.517Z,9.86
2023-02-19T11:53:24.587Z,9.76
2023-02-19T11:54:26.461Z,9.73
2023-02-19T11:55:50.187Z,9.74
2023-02-19T11:57:07.568Z,9.74
2023-02-19T11:58:28.190Z,9.75
2023-02-19T11:59:39.419Z,9.77
2023-02-19T12:01:01.985Z,9.79
2023-02-19T12:02:21.453Z,9.73
2023-02-19T12:03:26.109Z,9.66
2023-02-19T12:04:54.713Z,9.60
2023-02-19T12:05:56.558Z,9.58
2023-02-19T12:07:18.039Z,9.59
2023-02-19T12:08:49.245Z,9.55
2023-02-19T12:09:59.030Z,9.55
2023-02-19T12:11:16.115Z,9.59
2023-02-19T12:12:18.092Z,9.67
2023-02-19T12:13:30.237Z,9.72
2023-02-19T12:14:35.232Z,9.77
2023-02-19T12:15:44.855Z,9.82
2023-02-19T12:16:54.850Z,9.80
2023-02-19T12:17:59.874Z,9.83
2023-02-19T12:19:04.558Z,9.83
2023-02-19T12:20:18.050Z,9.86
2023-02-19T12:21:29.332Z,9.88
2023-02-19T12:22:33.843Z,9.90
2023-02-19T12:23:45.089Z,9.91
2023-02-19T12:25:00.337Z,9.92
2023-02-19T12:26:02.213Z,9.95
2023-02-19T12:27:10.058Z,9.97
2023-02-19T12:28:21.464Z,9.95
2023-02-19T12:29:43.564Z,9.96
2023-02-19T12:31:03.657Z,9.96
2023-02-19T12:32:10.246Z,9.96
2023-02-19T12:33:31.085Z,9.89
2023-02-19T12:34:33.019Z,9.84
2023-02-19T12:35:53.895Z,9.82
2023-02-19T12:36:58.961Z,9.82
2023-02-19T12:38:16.345Z,9.81
2023-02-19T12:39:28.111Z,9.80
2023-02-19T12:40:49.628Z,9.81
2023-02-19T12:42:16.569Z,9.74
2023-02-19T12:43:20.501Z,9.72
2023-02-19T12:44:35.671Z,9.74
2023-02-19T12:45:48.446Z,9.76
2023-02-19T12:46:53.516Z,9.76
2023-02-19T12:48:02.164Z,9.78
2023-02-19T12:49:24.924Z,9.79
2023-02-19T12:50:28.257Z,9.80
2023-02-19T12:51:49.806Z,9.81
2023-02-19T12:52:55.766Z,9.80
2023-02-19T12:54:16.831Z,9.80
2023-02-19T12:55:18.843Z,9.78
2023-02-19T12:56:41.162Z,9.76
2023-02-19T12:57:43.664Z,9.74
2023-02-19T12:58:49.763Z,9.73
2023-02-19T13:00:07.767Z,9.69
2023-02-19T13:01:13.810Z,9.70
2023-02-19T13:02:20.636Z,9.68
2023-02-19T13:03:25.571Z,9.67
2023-02-19T13:05:01.250Z,9.69
2023-02-19T13:06:23.628Z,9.73
2023-02-19T13:07:33.479Z,9.75
2023-02-19T13:09:04.752Z,9.70
2023-02-19T13:10:07.059Z,9.71
2023-02-19T13:11:18.639Z,9.74
2023-02-19T13:12:29.920Z,9.78
2023-02-19T13:13:34.584Z,9.80
2023-02-19T13:14:42.173Z,9.80
2023-02-19T13:15:46.646Z,9.80
2023-02-19T13:16:51.689Z,9.82
2023-02-19T13:17:56.284Z,9.84
2023-02-19T13:19:00.680Z,9.84
2023-02-19T13:20:10.025Z,9.84
2023-02-19T13:21:13.065Z,9.81
2023-02-19T13:22:38.335Z,9.81
2023-02-19T13:24:03.399Z,9.84
2023-02-19T13:25:07.109Z,9.86
2023-02-19T13:26:20.242Z,9.88
2023-02-19T13:27:30.943Z,9.89
2023-02-19T13:28:39.171Z,9.88
2023-02-19T13:29:56.192Z,9.90
2023-02-19T13:30:58.186Z,9.90
2023-02-19T13:32:18.558Z,9.93
2023-02-19T13:33:26.942Z,9.94
2023-02-19T13:34:35.392Z,9.97
2023-02-19T13:35:56.305Z,9.99
2023-02-19T13:37:00.541Z,10.01
2023-02-19T13:38:04.070Z,10.01
2023-02-19T13:39:08.227Z,10.01
2023-02-19T13:40:23.276Z,10.00
2023-02-19T13:41:28.206Z,10.00
2023-02-19T13:42:33.525Z,10.00
2023-02-19T13:43:39.423Z,10.02
2023-02-19T13:44:42.972Z,10.02
2023-02-19T13:45:46.895Z,10.05
2023-02-19T13:46:50.042Z,10.07
2023-02-19T13:47:55.296Z,10.09
2023-02-19T13:49:16.128Z,10.10
2023-02-19T13:50:20.582Z,10.12
2023-02-19T13:51:29.018Z,10.13
2023-02-19T13:52:30.918Z,10.15
2023-02-19T13:53:53.999Z,10.13
2023-02-19T13:55:14.921Z,10.12
2023-02-19T13:56:35.548Z,10.08
2023-02-19T13:57:39.804Z,9.99
2023-02-19T13:58:55.714Z,9.99
2023-02-19T13:59:58.551Z,9.95
2023-02-19T14:01:01.934Z,9.93
2023-02-19T14:02:04.428Z,9.90
2023-02-19T14:03:25.362Z,9.87
2023-02-19T14:04:33.232Z,9.88
2023-02-19T14:05:55.047Z,9.90
2023-02-19T14:07:06.596Z,9.94
2023-02-19T14:08:10.024Z,9.97
2023-02-19T14:09:30.499Z,9.95
2023-02-19T14:10:51.613Z,9.97
2023-02-19T14:12:03.201Z,9.98
2023-02-19T14:13:08.263Z,9.95
2023-02-19T14:14:29.332Z,9.97
2023-02-19T14:15:44.646Z,10.03
2023-02-19T14:16:52.970Z,10.02
2023-02-19T14:17:55.723Z,10.01
2023-02-19T14:18:58.129Z,9.96
2023-02-19T14:20:23.206Z,9.92
2023-02-19T14:21:28.557Z,9.92
2023-02-19T14:22:57.556Z,9.94
2023-02-19T14:24:01.220Z,9.98
2023-02-19T14:25:06.229Z,9.96
2023-02-19T14:26:09.229Z,9.94
2023-02-19T14:27:11.676Z,9.96
2023-02-19T14:28:20.012Z,9.98
2023-02-19T14:29:23.862Z,10.00
2023-02-19T14:30:26.603Z,10.03
2023-02-19T14:31:35.520Z,10.02
2023-02-19T14:32:43.411Z,10.05
2023-02-19T14:34:09.156Z,10.07
2023-02-19T14:35:28.248Z,10.09